Time;durP1;ratioP1;P1;durP2;ratioP2;P2;SDS_P1;SDS_P2;PMS_P1;PMS_P2;Temp;Humidity;BMP_temperature;BMP_pressure;BME280_temperature;BME280_humidity;BME280_pressure;Samples;Min_cycle;Max_cycle;Signal;HPM_P1;HPM_P2
2024/02/13 00:00:38;;;;;;;25.83;14.97;;;4.70;99.90;;;;;;5071290;28;20828;-60
2024/02/13 00:03:05;;;;;;;24.33;15.40;;;4.70;99.90;;;;;;5071360;28;20425;-60
2024/02/13 00:05:33;;;;;;;29.63;15.17;;;4.70;99.90;;;;;;5067478;28;20189;-59
2024/02/13 00:08:00;;;;;;;30.10;15.53;;;4.80;99.90;;;;;;5065730;28;20454;-61
2024/02/13 00:10:28;;;;;;;22.37;13.43;;;4.80;99.90;;;;;;5072764;28;20833;-62
2024/02/13 00:12:54;;;;;;;28.23;15.33;;;4.70;99.90;;;;;;5072799;28;20771;-63
2024/02/13 00:15:20;;;;;;;31.77;16.70;;;4.70;99.90;;;;;;5071218;28;20462;-62
2024/02/13 00:17:51;;;;;;;30.87;15.50;;;4.70;99.90;;;;;;5071034;28;20649;-62
2024/02/13 00:20:17;;;;;;;28.10;16.00;;;4.70;99.90;;;;;;5070828;28;20432;-62
2024/02/13 00:22:45;;;;;;;24.83;15.53;;;4.80;99.90;;;;;;5070996;28;20873;-60
2024/02/13 00:25:12;;;;;;;28.57;15.80;;;4.80;99.90;;;;;;5062613;28;20436;-62
2024/02/13 00:27:38;;;;;;;25.37;16.30;;;4.80;99.90;;;;;;5066242;28;20808;-62
2024/02/13 00:30:04;;;;;;;32.10;16.03;;;4.80;99.90;;;;;;5075450;28;20417;-63
2024/02/13 00:32:37;;;;;;;24.00;14.90;;;4.90;99.90;;;;;;5075173;28;20417;-59
2024/02/13 00:35:06;;;;;;;24.17;15.80;;;4.90;99.90;;;;;;5075273;28;20408;-62
2024/02/13 00:37:32;;;;;;;29.57;17.97;;;4.90;99.90;;;;;;5073033;28;20436;-62
2024/02/13 00:39:58;;;;;;;25.90;13.93;;;5.00;99.90;;;;;;5067739;28;20440;-62
2024/02/13 00:42:26;;;;;;;23.87;14.90;;;5.10;99.90;;;;;;5074875;28;20927;-62
2024/02/13 00:44:51;;;;;;;26.23;15.20;;;5.10;99.90;;;;;;5075248;28;20820;-60
2024/02/13 00:47:20;;;;;;;26.27;15.63;;;5.10;99.90;;;;;;5074970;28;20447;-63
2024/02/13 00:49:45;;;;;;;23.63;15.57;;;5.10;99.90;;;;;;5067007;28;20228;-59
2024/02/13 00:52:11;;;;;;;35.97;14.80;;;5.10;99.90;;;;;;5066482;28;20416;-60
2024/02/13 00:54:37;;;;;;;25.50;16.40;;;5.10;99.90;;;;;;5075243;28;20182;-59
2024/02/13 00:57:03;;;;;;;32.97;16.80;;;5.10;99.90;;;;;;5072785;28;20530;-61
2024/02/13 00:59:30;;;;;;;34.03;16.10;;;5.10;99.90;;;;;;5074781;28;20182;-60
2024/02/13 01:01:56;;;;;;;26.00;14.30;;;5.00;99.90;;;;;;5069179;28;20421;-64
2024/02/13 01:04:22;;;;;;;25.67;14.33;;;5.00;99.90;;;;;;5071535;28;20423;-60
2024/02/13 01:06:48;;;;;;;26.60;14.00;;;5.00;99.90;;;;;;5074640;28;20178;-62
2024/02/13 01:09:14;;;;;;;22.73;15.50;;;5.10;99.90;;;;;;5074571;28;20236;-59
2024/02/13 01:11:39;;;;;;;23.90;14.80;;;5.10;99.90;;;;;;5074518;28;20831;-58
2024/02/13 01:14:05;;;;;;;26.80;14.37;;;5.10;99.90;;;;;;5072935;28;20519;-57
2024/02/13 01:16:33;;;;;;;28.10;14.50;;;5.10;99.90;;;;;;5074266;28;20521;-61
2024/02/13 01:19:00;;;;;;;25.00;14.83;;;5.00;99.90;;;;;;5074235;28;20436;-60
2024/02/13 01:21:25;;;;;;;32.00;13.27;;;5.00;99.90;;;;;;5070377;28;20475;-63
2024/02/13 01:23:51;;;;;;;27.83;14.43;;;5.00;99.90;;;;;;5074120;28;20409;-59
2024/02/13 01:26:21;;;;;;;23.87;13.90;;;5.00;99.90;;;;;;5074179;28;20223;-59
2024/02/13 01:28:46;;;;;;;21.53;12.17;;;5.00;99.90;;;;;;5070347;28;20464;-59
2024/02/13 01:31:13;;;;;;;21.37;12.43;;;4.90;99.90;;;;;;5069742;28;20416;-59
2024/02/13 01:33:39;;;;;;;18.73;11.60;;;4.90;99.90;;;;;;5073948;28;20811;-60
2024/02/13 01:36:06;;;;;;;20.53;13.67;;;4.90;99.90;;;;;;5074730;28;20409;-62
2024/02/13 01:38:32;;;;;;;22.97;14.07;;;5.00;99.90;;;;;;5072863;28;20428;-61
2024/02/13 01:40:58;;;;;;;17.43;12.13;;;5.00;99.90;;;;;;5067713;28;20408;-61
2024/02/13 01:43:25;;;;;;;25.23;11.93;;;5.00;99.90;;;;;;5075513;28;20428;-62
2024/02/13 01:45:55;;;;;;;21.60;12.60;;;5.00;99.90;;;;;;5073782;28;20174;-59
2024/02/13 01:48:22;;;;;;;29.80;12.83;;;5.10;99.90;;;;;;5071366;28;20497;-63
2024/02/13 01:50:49;;;;;;;27.27;13.13;;;5.10;99.90;;;;;;5073103;28;20432;-61
2024/02/13 01:53:18;;;;;;;19.00;11.70;;;5.10;99.90;;;;;;5073691;28;20424;-62
2024/02/13 01:55:45;;;;;;;19.60;11.70;;;5.10;99.90;;;;;;5065306;28;20413;-63
2024/02/13 01:58:11;;;;;;;25.30;12.77;;;5.10;99.90;;;;;;5073454;28;20444;-61
2024/02/13 02:00:37;;;;;;;15.93;11.87;;;5.10;99.90;;;;;;5073410;28;20426;-60
2024/02/13 02:03:04;;;;;;;22.97;12.83;;;5.20;99.90;;;;;;5073137;28;20831;-62
2024/02/13 02:05:31;;;;;;;17.40;11.97;;;5.10;99.90;;;;;;5073465;28;20417;-61
2024/02/13 02:07:58;;;;;;;15.27;10.80;;;5.10;99.90;;;;;;5071430;28;20574;-62
2024/02/13 02:10:24;;;;;;;19.80;11.50;;;5.10;99.90;;;;;;5073410;28;20424;-62
2024/02/13 02:12:50;;;;;;;22.77;12.87;;;5.10;99.90;;;;;;5073329;28;20424;-61
2024/02/13 02:15:16;;;;;;;23.53;15.07;;;5.10;99.90;;;;;;5073365;28;20170;-62
2024/02/13 02:17:52;;;;;;;15.80;10.53;;;5.10;99.90;;;;;;5072782;28;21008;-61
2024/02/13 02:20:22;;;;;;;17.97;10.77;;;5.10;99.90;;;;;;5073371;28;20859;-62
2024/02/13 02:22:51;;;;;;;26.00;12.40;;;5.10;99.90;;;;;;5054989;28;21597;-61
2024/02/13 02:25:28;;;;;;;22.53;11.10;;;5.10;99.90;;;;;;5073092;28;20417;-60
2024/02/13 02:27:54;;;;;;;20.07;10.80;;;5.10;99.90;;;;;;5072823;28;20491;-62
2024/02/13 02:30:20;;;;;;;22.10;11.70;;;5.10;99.90;;;;;;5072986;28;20980;-62
2024/02/13 02:32:47;;;;;;;24.87;12.10;;;5.10;99.90;;;;;;5072484;28;20413;-62
2024/02/13 02:35:13;;;;;;;15.47;10.17;;;5.20;99.90;;;;;;5065935;28;20195;-62
2024/02/13 02:37:40;;;;;;;16.30;11.27;;;5.20;99.90;;;;;;5062918;28;20515;-62
2024/02/13 02:40:06;;;;;;;14.47;9.50;;;5.20;99.90;;;;;;5071009;28;20264;-62
2024/02/13 02:42:32;;;;;;;20.23;11.00;;;5.20;99.90;;;;;;5070894;28;20451;-62
2024/02/13 02:44:59;;;;;;;15.70;10.23;;;5.20;99.90;;;;;;5072581;28;20417;-62
2024/02/13 02:47:24;;;;;;;25.80;10.80;;;5.20;99.90;;;;;;5072006;28;20214;-63
2024/02/13 02:49:50;;;;;;;18.80;10.03;;;5.20;99.90;;;;;;5070170;28;20428;-65
2024/02/13 02:52:17;;;;;;;16.60;9.87;;;5.10;99.90;;;;;;5072016;28;20182;-61
2024/02/13 02:54:43;;;;;;;16.50;9.60;;;5.10;99.90;;;;;;5070774;28;20625;-61
2024/02/13 02:57:11;;;;;;;14.70;9.30;;;5.10;99.90;;;;;;5072043;28;20562;-62
2024/02/13 02:59:36;;;;;;;13.93;8.93;;;5.10;99.90;;;;;;5072199;28;20906;-62
2024/02/13 03:02:02;;;;;;;15.23;8.67;;;5.10;99.90;;;;;;5071990;28;20421;-60
2024/02/13 03:04:28;;;;;;;22.80;9.90;;;5.10;99.90;;;;;;5072115;28;20181;-62
2024/02/13 03:06:54;;;;;;;16.10;8.10;;;5.00;99.90;;;;;;5053784;28;20637;-63
2024/02/13 03:09:20;;;;;;;16.00;8.47;;;5.00;99.90;;;;;;5072047;28;20460;-61
2024/02/13 03:11:47;;;;;;;12.77;8.33;;;4.90;99.90;;;;;;5069816;28;20182;-62
2024/02/13 03:14:12;;;;;;;11.73;8.33;;;4.90;99.90;;;;;;5071911;28;20413;-64
2024/02/13 03:16:40;;;;;;;13.60;9.67;;;4.90;99.90;;;;;;5071697;28;20528;-58
2024/02/13 03:19:06;;;;;;;15.63;8.70;;;5.00;99.90;;;;;;5072193;28;20636;-61
2024/02/13 03:21:32;;;;;;;11.63;7.43;;;4.90;99.90;;;;;;5071829;28;20477;-61
2024/02/13 03:23:58;;;;;;;12.50;8.67;;;4.90;99.90;;;;;;5071888;28;20895;-63
2024/02/13 03:26:24;;;;;;;9.90;6.97;;;4.90;99.90;;;;;;5071752;28;20253;-62
2024/02/13 03:28:49;;;;;;;11.20;7.67;;;5.00;99.90;;;;;;5069844;28;20210;-62
2024/02/13 03:31:15;;;;;;;12.17;7.73;;;5.00;99.90;;;;;;5071657;28;20215;-62
2024/02/13 03:33:41;;;;;;;13.07;8.10;;;5.10;99.90;;;;;;5071615;28;20185;-62
2024/02/13 03:36:07;;;;;;;10.10;7.63;;;5.10;99.90;;;;;;5071659;28;20183;-61
2024/02/13 03:38:32;;;;;;;13.87;8.93;;;5.20;99.90;;;;;;5071472;28;20198;-62
2024/02/13 03:40:59;;;;;;;17.37;8.60;;;5.20;99.90;;;;;;5071561;28;20561;-62
2024/02/13 03:43:25;;;;;;;10.20;6.50;;;5.20;99.90;;;;;;5071336;28;20170;-63
2024/02/13 03:45:52;;;;;;;9.57;6.13;;;5.20;99.90;;;;;;5069339;28;20432;-64
2024/02/13 03:48:18;;;;;;;11.23;7.30;;;5.30;99.90;;;;;;5071166;28;20547;-58
2024/02/13 03:50:44;;;;;;;9.83;6.90;;;5.40;99.90;;;;;;5069519;28;20605;-59
2024/02/13 03:53:09;;;;;;;8.57;6.77;;;5.40;99.90;;;;;;5070941;28;20198;-61
2024/02/13 03:55:35;;;;;;;8.97;6.03;;;5.40;99.90;;;;;;5071398;28;20252;-61
2024/02/13 03:58:01;;;;;;;11.70;5.70;;;5.40;99.90;;;;;;5071612;28;20194;-61
2024/02/13 04:00:26;;;;;;;8.77;6.07;;;5.40;99.90;;;;;;5070936;28;20642;-59
2024/02/13 04:02:52;;;;;;;12.27;5.73;;;5.40;99.90;;;;;;5071223;28;20662;-62
2024/02/13 04:05:18;;;;;;;6.77;5.50;;;5.40;99.90;;;;;;5071547;28;20224;-60
2024/02/13 04:07:44;;;;;;;7.20;5.07;;;5.50;99.90;;;;;;5069322;28;20476;-62
2024/02/13 04:10:10;;;;;;;9.20;5.93;;;5.50;99.90;;;;;;5071383;28;20176;-62
2024/02/13 04:12:35;;;;;;;9.93;5.87;;;5.40;99.90;;;;;;5071242;28;20182;-61
2024/02/13 04:15:02;;;;;;;14.53;6.03;;;5.40;99.90;;;;;;5071348;28;20409;-62
2024/02/13 04:17:27;;;;;;;6.30;4.77;;;5.40;99.90;;;;;;5071266;28;20276;-63
2024/02/13 04:19:53;;;;;;;9.90;5.03;;;5.40;99.90;;;;;;5071247;28;20404;-62
2024/02/13 04:22:19;;;;;;;6.70;4.77;;;5.40;99.90;;;;;;5071187;28;20179;-62
2024/02/13 04:24:45;;;;;;;6.40;5.13;;;5.40;99.90;;;;;;5070004;28;20186;-61
2024/02/13 04:27:10;;;;;;;11.47;4.90;;;5.40;99.90;;;;;;5071489;28;20413;-63
2024/02/13 04:29:36;;;;;;;5.80;4.53;;;5.40;99.90;;;;;;5071608;28;20194;-62
2024/02/13 04:32:02;;;;;;;5.00;4.50;;;5.30;99.90;;;;;;5071530;28;20171;-63
2024/02/13 04:34:27;;;;;;;6.43;4.40;;;5.30;99.90;;;;;;5071873;28;20573;-60
2024/02/13 04:36:53;;;;;;;12.90;4.00;;;5.20;99.90;;;;;;5071722;28;20183;-61
2024/02/13 04:39:19;;;;;;;8.60;4.53;;;5.20;99.90;;;;;;5075853;28;20562;-62
2024/02/13 04:41:46;;;;;;;8.87;4.53;;;5.20;99.90;;;;;;5072558;28;20589;-62
2024/02/13 04:44:12;;;;;;;6.03;4.40;;;5.20;99.90;;;;;;5072016;28;20258;-59
2024/02/13 04:46:39;;;;;;;6.17;4.73;;;5.20;99.90;;;;;;5071553;28;20424;-61
2024/02/13 04:49:05;;;;;;;7.97;4.17;;;5.20;99.90;;;;;;5070596;28;20468;-61
2024/02/13 04:51:31;;;;;;;7.67;4.60;;;5.20;99.90;;;;;;5068457;28;20934;-63
2024/02/13 04:53:56;;;;;;;9.10;4.80;;;5.20;99.90;;;;;;5070632;28;20465;-63
2024/02/13 04:56:22;;;;;;;5.20;4.30;;;5.20;99.90;;;;;;5068892;28;20224;-61
2024/02/13 04:58:48;;;;;;;14.37;5.27;;;5.20;99.90;;;;;;5070240;28;20206;-64
2024/02/13 05:01:14;;;;;;;6.60;4.00;;;5.20;99.90;;;;;;5070605;28;20174;-61
2024/02/13 05:07:19;;;;;;;5.80;3.90;;;5.20;99.90;;;;;;5070430;28;20297;-61
2024/02/13 05:09:11;;;;;;;4.60;3.70;;;5.30;99.90;;;;;;5070345;28;20460;-61
2024/02/13 05:11:39;;;;;;;5.10;4.03;;;5.20;99.90;;;;;;5070607;28;20428;-58
2024/02/13 05:14:06;;;;;;;4.97;4.43;;;5.10;99.90;;;;;;5073574;28;20949;-62
2024/02/13 05:16:32;;;;;;;6.47;5.03;;;5.00;99.90;;;;;;5072783;28;20429;-62
2024/02/13 05:18:58;;;;;;;6.63;3.90;;;4.90;99.90;;;;;;5074556;28;20435;-60
2024/02/13 05:21:24;;;;;;;4.90;4.07;;;4.90;99.90;;;;;;5074563;28;20200;-62
2024/02/13 05:23:50;;;;;;;6.93;4.97;;;4.80;99.90;;;;;;5074041;28;20918;-61
2024/02/13 05:26:20;;;;;;;6.67;5.47;;;4.80;99.90;;;;;;5074129;28;20174;-61
2024/02/13 05:28:46;;;;;;;6.10;5.20;;;4.80;99.90;;;;;;5073831;28;20567;-60
2024/02/13 05:31:11;;;;;;;9.40;5.50;;;4.80;99.90;;;;;;5074126;28;20961;-63
2024/02/13 05:33:38;;;;;;;4.80;4.30;;;4.80;99.90;;;;;;5072180;28;20428;-63
2024/02/13 05:36:04;;;;;;;8.73;5.13;;;4.90;99.90;;;;;;5074216;28;20175;-62
2024/02/13 05:38:40;;;;;;;6.07;4.90;;;4.80;99.90;;;;;;5070560;28;20443;-62
2024/02/13 05:41:05;;;;;;;7.30;4.60;;;4.90;99.90;;;;;;5066761;28;20815;-64
2024/02/13 05:43:31;;;;;;;6.07;4.07;;;4.90;99.90;;;;;;5073977;28;20506;-60
2024/02/13 05:45:57;;;;;;;8.77;5.57;;;4.80;99.90;;;;;;5073946;28;20174;-62
2024/02/13 05:48:24;;;;;;;10.73;6.00;;;4.80;99.90;;;;;;5073533;28;20209;-61
2024/02/13 05:50:51;;;;;;;9.10;5.90;;;4.90;99.90;;;;;;5073712;28;20316;-62
2024/02/13 05:53:16;;;;;;;7.73;6.70;;;4.80;99.90;;;;;;5071475;28;20555;-61
2024/02/13 05:55:42;;;;;;;9.53;4.70;;;4.70;99.90;;;;;;5073401;28;20409;-61
2024/02/13 05:58:08;;;;;;;9.20;5.70;;;4.70;99.90;;;;;;5073461;28;20433;-62
2024/02/13 06:00:34;;;;;;;6.30;5.70;;;4.70;99.90;;;;;;5069981;28;20448;-61
2024/02/13 06:03:01;;;;;;;7.27;6.17;;;4.70;99.90;;;;;;5073465;28;20283;-59
2024/02/13 06:05:27;;;;;;;8.57;6.80;;;4.60;99.90;;;;;;5073627;28;20209;-62
2024/02/13 06:07:53;;;;;;;12.13;6.03;;;4.60;99.90;;;;;;5073816;28;21004;-61
2024/02/13 06:10:19;;;;;;;6.20;5.33;;;4.60;99.90;;;;;;5074564;28;20408;-61
2024/02/13 06:12:47;;;;;;;7.13;6.33;;;4.70;99.90;;;;;;5073790;28;20735;-60
2024/02/13 06:15:13;;;;;;;7.50;6.03;;;4.60;99.90;;;;;;5071759;28;20429;-63
2024/02/13 06:17:40;;;;;;;10.53;5.80;;;4.70;99.90;;;;;;5072946;28;20541;-63
2024/02/13 06:20:08;;;;;;;7.23;6.13;;;4.70;99.90;;;;;;5073099;28;20264;-62
2024/02/13 06:22:36;;;;;;;10.70;6.80;;;4.70;99.90;;;;;;5072728;28;20420;-59
2024/02/13 06:25:04;;;;;;;13.43;7.67;;;4.70;99.90;;;;;;5064548;28;20412;-62
2024/02/13 06:27:33;;;;;;;10.50;6.53;;;4.80;99.90;;;;;;5072870;28;20434;-61
2024/02/13 06:29:58;;;;;;;11.50;7.70;;;4.80;99.90;;;;;;5072695;28;20431;-62
2024/02/13 06:32:27;;;;;;;10.90;6.57;;;4.80;99.90;;;;;;5072578;28;20421;-63
2024/02/13 06:34:53;;;;;;;11.13;8.30;;;4.80;99.90;;;;;;5071337;28;20998;-62
2024/02/13 06:37:20;;;;;;;11.40;8.40;;;4.90;99.90;;;;;;5072469;28;20447;-60
2024/02/13 06:39:46;;;;;;;12.50;8.97;;;4.90;99.90;;;;;;5072495;28;20491;-57
2024/02/13 06:42:12;;;;;;;16.00;9.97;;;4.90;99.90;;;;;;5073034;28;20420;-59
2024/02/13 06:44:39;;;;;;;14.27;9.53;;;4.90;99.90;;;;;;5072640;28;20918;-61
2024/02/13 06:47:08;;;;;;;15.10;9.50;;;4.90;99.90;;;;;;5072505;28;20952;-62
2024/02/13 06:49:34;;;;;;;12.80;9.40;;;5.00;99.90;;;;;;5072469;28;20832;-62
2024/02/13 06:52:00;;;;;;;14.70;9.87;;;5.00;99.90;;;;;;5070729;28;20429;-64
2024/02/13 06:54:25;;;;;;;13.23;8.80;;;4.90;99.90;;;;;;5068803;28;20498;-61
2024/02/13 06:56:51;;;;;;;12.87;8.00;;;5.00;99.90;;;;;;5072089;28;20633;-62
2024/02/13 06:59:17;;;;;;;13.97;7.63;;;5.00;99.90;;;;;;5072386;28;20201;-62
2024/02/13 07:01:43;;;;;;;10.50;7.73;;;5.00;99.90;;;;;;5072294;28;20832;-63
2024/02/13 07:04:10;;;;;;;13.23;8.40;;;5.10;99.90;;;;;;5072277;28;20209;-61
2024/02/13 07:06:37;;;;;;;11.93;8.27;;;5.10;99.90;;;;;;5072110;28;20275;-62
2024/02/13 07:09:05;;;;;;;12.00;7.10;;;5.00;99.90;;;;;;5071893;28;20456;-57
2024/02/13 07:11:31;;;;;;;10.83;7.23;;;5.00;99.90;;;;;;5065516;28;20440;-58
2024/02/13 07:13:56;;;;;;;13.53;8.30;;;5.00;99.90;;;;;;5082387;28;20503;-64
2024/02/13 07:16:22;;;;;;;9.57;7.70;;;5.00;99.90;;;;;;5076044;28;20174;-62
2024/02/13 07:18:47;;;;;;;15.27;7.67;;;5.10;99.90;;;;;;5071573;28;20622;-62
2024/02/13 07:21:13;;;;;;;10.67;7.33;;;5.10;99.90;;;;;;5074100;28;20186;-62
2024/02/13 07:23:39;;;;;;;9.80;7.23;;;5.20;99.90;;;;;;5071761;28;20198;-65
2024/02/13 07:26:04;;;;;;;10.73;7.33;;;5.20;99.90;;;;;;5071822;28;20180;-62
2024/02/13 07:28:30;;;;;;;14.30;7.67;;;5.40;99.90;;;;;;5074616;28;20564;-64
2024/02/13 07:30:56;;;;;;;15.87;8.53;;;5.30;99.90;;;;;;5072704;28;20265;-63
2024/02/13 07:33:22;;;;;;;15.10;7.73;;;5.30;99.90;;;;;;5071527;28;20166;-64
2024/02/13 07:35:48;;;;;;;12.37;6.07;;;5.40;99.90;;;;;;5070786;28;20408;-64
2024/02/13 07:38:13;;;;;;;10.07;6.40;;;5.30;99.90;;;;;;5071667;28;20440;-64
2024/02/13 07:40:39;;;;;;;9.30;6.97;;;5.40;99.90;;;;;;5072174;28;20179;-62
2024/02/13 07:43:06;;;;;;;13.90;8.23;;;5.40;99.90;;;;;;5063494;28;20178;-61
2024/02/13 07:45:32;;;;;;;10.60;7.27;;;5.50;99.90;;;;;;5071603;28;20178;-60
2024/02/13 07:47:59;;;;;;;10.50;7.80;;;5.60;99.90;;;;;;5069649;28;20563;-62
2024/02/13 07:50:26;;;;;;;12.70;7.60;;;5.60;99.90;;;;;;5071629;28;20253;-62
2024/02/13 07:52:51;;;;;;;9.70;8.20;;;5.70;99.90;;;;;;5071701;28;20830;-60
2024/02/13 07:55:18;;;;;;;10.20;7.10;;;5.70;99.90;;;;;;5068257;28;20441;-62
2024/02/13 07:57:49;;;;;;;9.80;7.20;;;5.60;99.90;;;;;;5071296;28;20295;-63
2024/02/13 08:00:20;;;;;;;10.17;6.17;;;5.60;99.90;;;;;;5071664;28;20450;-60
2024/02/13 08:02:48;;;;;;;9.93;6.63;;;5.70;99.90;;;;;;5070793;28;20937;-65
2024/02/13 08:05:13;;;;;;;13.40;6.10;;;5.70;99.90;;;;;;5069260;28;20513;-61
2024/02/13 08:07:39;;;;;;;10.87;6.83;;;5.80;99.90;;;;;;5071066;28;20557;-58
2024/02/13 08:10:06;;;;;;;10.17;6.50;;;5.80;99.90;;;;;;5070978;28;20193;-60
2024/02/13 08:12:33;;;;;;;8.87;7.10;;;6.00;99.90;;;;;;5069059;28;20191;-62
2024/02/13 08:14:58;;;;;;;8.73;6.40;;;5.90;99.90;;;;;;5070971;28;20916;-64
2024/02/13 08:17:24;;;;;;;11.60;6.60;;;6.00;99.90;;;;;;5070797;28;20439;-66
2024/02/13 08:19:49;;;;;;;18.10;8.03;;;6.10;99.90;;;;;;5075597;28;20178;-64
2024/02/13 08:22:18;;;;;;;12.40;7.37;;;6.10;99.90;;;;;;5070595;28;20265;-59
2024/02/13 08:24:43;;;;;;;8.90;6.63;;;6.20;99.90;;;;;;5070278;28;20175;-59
2024/02/13 08:27:09;;;;;;;12.50;6.97;;;6.40;99.90;;;;;;5070912;28;20500;-65
2024/02/13 08:29:35;;;;;;;10.13;7.10;;;6.50;99.90;;;;;;5069422;28;20222;-62
2024/02/13 08:32:06;;;;;;;9.37;7.33;;;6.30;99.90;;;;;;5070685;28;20747;-63
2024/02/13 08:34:32;;;;;;;12.00;7.33;;;6.20;99.90;;;;;;5071260;28;20630;-62
2024/02/13 08:36:57;;;;;;;15.93;7.43;;;6.40;99.90;;;;;;5071178;28;20427;-61
2024/02/13 08:39:23;;;;;;;11.93;7.43;;;6.20;99.90;;;;;;5071259;28;20261;-63
2024/02/13 08:41:49;;;;;;;11.10;6.60;;;6.30;99.90;;;;;;5071079;28;20210;-64
2024/02/13 08:44:16;;;;;;;11.50;6.97;;;6.40;99.90;;;;;;5070901;28;20175;-62
2024/02/13 08:46:41;;;;;;;10.70;6.73;;;6.70;99.90;;;;;;5070021;28;20191;-63
2024/02/13 08:49:07;;;;;;;12.00;5.90;;;6.50;99.90;;;;;;5074567;28;20841;-65
2024/02/13 08:51:33;;;;;;;9.20;6.00;;;6.50;99.90;;;;;;5075185;28;20180;-63
2024/02/13 08:53:59;;;;;;;12.27;7.57;;;6.70;99.90;;;;;;5075018;28;20184;-65
2024/02/13 08:56:25;;;;;;;7.67;6.30;;;6.70;99.90;;;;;;5073380;28;20478;-62
2024/02/13 08:58:52;;;;;;;12.43;6.50;;;6.80;99.90;;;;;;5075130;28;20207;-62
2024/02/13 09:01:21;;;;;;;10.23;8.30;;;6.70;99.90;;;;;;5074679;28;20655;-64
2024/02/13 09:03:48;;;;;;;9.90;6.70;;;6.70;99.90;;;;;;5074518;28;20981;-63
2024/02/13 09:06:16;;;;;;;7.43;6.30;;;6.70;99.90;;;;;;5074650;28;20427;-63
2024/02/13 09:08:43;;;;;;;10.50;7.03;;;6.60;99.90;;;;;;5074177;28;20486;-65
2024/02/13 09:11:12;;;;;;;10.90;5.47;;;6.60;99.90;;;;;;5074238;28;20423;-62
2024/02/13 09:13:38;;;;;;;9.50;6.13;;;6.90;99.90;;;;;;5072165;28;20514;-66
2024/02/13 09:16:08;;;;;;;10.03;6.20;;;7.20;99.90;;;;;;5074308;28;20418;-62
2024/02/13 09:18:34;;;;;;;13.73;7.20;;;7.40;99.90;;;;;;5074294;28;20588;-63
2024/02/13 09:21:00;;;;;;;10.73;5.43;;;7.20;99.90;;;;;;5074234;28;20508;-63
2024/02/13 09:23:27;;;;;;;11.07;6.63;;;7.00;99.90;;;;;;5074022;28;20674;-65
2024/02/13 09:25:55;;;;;;;8.27;7.20;;;6.90;99.90;;;;;;5073875;28;20424;-62
2024/02/13 09:28:21;;;;;;;9.23;6.00;;;6.90;99.90;;;;;;5074072;28;20835;-62
2024/02/13 09:30:47;;;;;;;10.90;6.23;;;7.20;99.90;;;;;;5072256;28;20476;-61
2024/02/13 09:33:14;;;;;;;14.13;6.40;;;7.40;99.90;;;;;;5071622;28;20463;-62
2024/02/13 09:35:40;;;;;;;8.43;5.60;;;8.10;99.90;;;;;;5073979;28;20435;-61
2024/02/13 09:38:06;;;;;;;7.07;6.20;;;7.80;99.90;;;;;;5073605;28;22166;-64
2024/02/13 09:40:33;;;;;;;7.13;6.10;;;7.60;99.90;;;;;;5073701;28;20223;-64
2024/02/13 09:42:59;;;;;;;10.83;6.00;;;7.60;99.90;;;;;;5073691;28;20442;-64
2024/02/13 09:45:26;;;;;;;6.60;5.30;;;7.80;99.90;;;;;;5074121;28;20421;-64
2024/02/13 09:47:52;;;;;;;7.60;6.00;;;8.00;99.90;;;;;;5073547;28;20468;-63
2024/02/13 09:50:18;;;;;;;9.67;5.90;;;8.10;99.90;;;;;;5072290;28;20899;-60
2024/02/13 09:52:54;;;;;;;5.53;5.00;;;8.00;99.90;;;;;;5073589;28;20417;-61
2024/02/13 09:55:20;;;;;;;7.33;4.70;;;7.90;99.90;;;;;;5066370;28;20404;-63
2024/02/13 09:57:48;;;;;;;6.17;4.30;;;7.90;99.90;;;;;;5071068;28;20447;-66
2024/02/13 10:00:16;;;;;;;8.10;4.90;;;7.90;99.90;;;;;;5064853;28;20771;-63
2024/02/13 10:02:43;;;;;;;5.93;4.47;;;7.90;99.90;;;;;;5073435;28;20431;-63
2024/02/13 10:05:12;;;;;;;11.80;5.40;;;7.90;99.90;;;;;;5073396;28;20424;-63
2024/02/13 10:07:39;;;;;;;10.50;6.17;;;8.50;99.90;;;;;;5073124;28;20444;-63
2024/02/13 10:10:10;;;;;;;7.23;4.97;;;8.70;99.90;;;;;;5073281;28;20424;-63
2024/02/13 10:12:59;;;;;;;6.27;4.90;;;8.70;99.90;;;;;;5073348;28;20424;-64
2024/02/13 10:15:44;;;;;;;6.13;5.53;;;8.70;99.90;;;;;;5070518;28;20507;-65
2024/02/13 10:18:11;;;;;;;8.30;4.97;;;8.50;99.90;;;;;;5072979;28;20467;-63
2024/02/13 10:20:39;;;;;;;9.10;5.60;;;8.40;99.90;;;;;;5078797;28;20804;-64
2024/02/13 10:23:05;;;;;;;6.47;4.50;;;8.70;99.90;;;;;;5073060;28;20420;-63
2024/02/13 10:25:33;;;;;;;6.53;5.13;;;8.50;99.90;;;;;;5073038;28;20415;-67
2024/02/13 10:28:01;;;;;;;5.67;3.90;;;8.80;99.90;;;;;;5072865;28;20486;-64
2024/02/13 10:30:30;;;;;;;13.10;5.47;;;8.90;99.90;;;;;;5071218;28;20460;-66
2024/02/13 10:33:01;;;;;;;9.37;5.83;;;8.70;99.90;;;;;;5072712;28;20405;-63
2024/02/13 10:35:29;;;;;;;6.13;4.00;;;8.40;99.90;;;;;;5073090;28;20458;-62
2024/02/13 10:37:55;;;;;;;6.00;4.30;;;8.40;99.90;;;;;;5072980;28;21016;-62
2024/02/13 10:40:23;;;;;;;6.93;4.67;;;8.60;99.90;;;;;;5073270;28;20425;-62
2024/02/13 10:42:49;;;;;;;6.87;4.37;;;8.50;99.90;;;;;;5072810;28;20448;-62
2024/02/13 10:45:17;;;;;;;5.40;3.80;;;8.60;99.90;;;;;;5072450;28;20451;-64
2024/02/13 10:47:51;;;;;;;4.27;3.87;;;8.70;99.90;;;;;;5070691;28;20468;-62
2024/02/13 10:50:18;;;;;;;6.70;4.43;;;8.80;99.90;;;;;;5064568;28;20458;-63
2024/02/13 10:52:45;;;;;;;7.30;4.47;;;8.80;99.90;;;;;;5072384;28;20455;-63
2024/02/13 10:55:12;;;;;;;6.30;4.47;;;8.90;99.90;;;;;;5072280;28;20444;-63
2024/02/13 10:57:38;;;;;;;6.40;3.00;;;8.60;99.90;;;;;;5069948;28;20452;-66
2024/02/13 11:00:08;;;;;;;3.43;2.57;;;8.20;99.90;;;;;;5072226;28;20915;-63
2024/02/13 11:02:36;;;;;;;4.50;3.27;;;8.30;99.90;;;;;;5072220;28;20415;-64
2024/02/13 11:05:06;;;;;;;3.33;3.03;;;8.40;99.90;;;;;;5072084;28;20421;-66
2024/02/13 11:07:32;;;;;;;3.87;3.17;;;8.30;99.90;;;;;;5071974;28;20792;-65
2024/02/13 11:09:59;;;;;;;6.93;3.30;;;8.30;99.90;;;;;;5071910;28;20423;-64
2024/02/13 11:12:24;;;;;;;5.47;3.80;;;8.40;99.90;;;;;;5071830;28;20474;-63
2024/02/13 11:14:50;;;;;;;6.83;2.90;;;8.50;99.90;;;;;;5070670;28;20839;-64
2024/02/13 11:17:15;;;;;;;7.17;3.90;;;8.60;99.90;;;;;;5071883;28;20182;-62
2024/02/13 11:19:43;;;;;;;2.97;2.33;;;8.80;99.90;;;;;;5076685;28;20206;-63
2024/02/13 11:22:09;;;;;;;5.30;3.90;;;8.90;99.90;;;;;;5072417;28;20201;-65
2024/02/13 11:25:04;;;;;;;3.80;2.90;;;9.00;99.90;;;;;;5071672;28;20846;-65
2024/02/13 11:27:31;;;;;;;3.47;3.17;;;9.00;99.90;;;;;;5065268;28;20857;-66
2024/02/13 11:30:02;;;;;;;8.10;2.80;;;9.00;99.90;;;;;;5069882;28;20773;-65
2024/02/13 11:32:33;;;;;;;3.77;2.80;;;8.80;99.90;;;;;;5069312;28;20420;-66
2024/02/13 11:34:59;;;;;;;5.17;2.70;;;8.60;99.90;;;;;;5069085;28;20432;-65
2024/02/13 11:37:30;;;;;;;3.30;2.40;;;8.50;99.90;;;;;;5071150;28;20474;-65
2024/02/13 11:39:58;;;;;;;3.13;2.10;;;8.50;99.90;;;;;;5071576;28;20405;-65
2024/02/13 11:42:30;;;;;;;2.60;1.77;;;8.70;99.90;;;;;;5071395;28;20420;-65
2024/02/13 11:44:56;;;;;;;3.57;2.33;;;8.60;99.90;;;;;;5071162;28;20435;-65
2024/02/13 11:47:24;;;;;;;3.20;2.23;;;8.60;99.90;;;;;;5071311;28;20942;-65
2024/02/13 11:49:50;;;;;;;6.30;2.90;;;8.70;99.90;;;;;;5069694;28;20201;-65
2024/02/13 11:52:23;;;;;;;2.73;2.30;;;8.80;99.90;;;;;;5069335;28;20950;-65
2024/02/13 11:54:49;;;;;;;3.43;2.07;;;8.90;99.90;;;;;;5071352;28;20439;-65
2024/02/13 11:57:17;;;;;;;5.17;2.77;;;8.90;99.90;;;;;;5071018;28;20963;-66
2024/02/13 11:59:43;;;;;;;3.50;2.37;;;9.10;99.90;;;;;;5069148;28;20452;-64
2024/02/13 12:02:11;;;;;;;4.50;3.03;;;9.20;99.90;;;;;;5068379;28;20451;-64
2024/02/13 12:04:37;;;;;;;5.80;3.50;;;9.20;99.90;;;;;;5071084;28;20416;-64
2024/02/13 12:07:03;;;;;;;2.97;2.07;;;9.00;99.90;;;;;;5070939;28;20531;-64
2024/02/13 12:09:30;;;;;;;3.27;2.20;;;9.00;99.90;;;;;;5071071;28;20517;-63
2024/02/13 12:11:56;;;;;;;2.90;1.90;;;9.00;99.90;;;;;;5071033;28;20927;-64
2024/02/13 12:14:23;;;;;;;2.57;2.37;;;8.90;99.90;;;;;;5071294;28;20455;-64
2024/02/13 12:16:50;;;;;;;3.60;2.23;;;8.80;99.90;;;;;;5071450;28;20177;-62
2024/02/13 12:19:16;;;;;;;3.90;2.10;;;8.80;99.90;;;;;;5070247;28;20476;-64
2024/02/13 12:21:43;;;;;;;2.60;1.57;;;9.10;99.90;;;;;;5071937;28;20432;-66
2024/02/13 12:24:09;;;;;;;2.50;2.00;;;9.30;99.90;;;;;;5071531;28;20428;-66
2024/02/13 12:26:37;;;;;;;4.83;2.20;;;9.10;99.90;;;;;;5071407;28;20443;-66
2024/02/13 12:29:14;;;;;;;5.63;2.10;;;8.80;99.90;;;;;;5071038;28;20878;-65
2024/02/13 12:31:41;;;;;;;1.70;1.60;;;8.80;99.90;;;;;;5071537;28;20527;-65
2024/02/13 12:34:07;;;;;;;2.23;1.60;;;8.90;99.90;;;;;;5070923;28;20408;-65
2024/02/13 12:36:36;;;;;;;2.40;2.17;;;8.90;99.90;;;;;;5069501;28;20447;-66
2024/02/13 12:39:16;;;;;;;3.30;1.60;;;9.00;99.90;;;;;;5070958;28;20440;-67
2024/02/13 12:41:51;;;;;;;4.80;2.20;;;9.10;99.90;;;;;;5068846;28;20840;-66
2024/02/13 12:44:18;;;;;;;3.93;2.00;;;9.10;99.90;;;;;;5070702;28;20408;-66
2024/02/13 12:46:45;;;;;;;3.13;2.83;;;9.00;99.90;;;;;;5071135;28;20420;-67
2024/02/13 12:49:12;;;;;;;2.43;1.60;;;9.20;99.90;;;;;;5070736;28;20456;-65
2024/02/13 12:51:39;;;;;;;2.13;1.50;;;9.00;99.90;;;;;;5071215;28;20412;-65